LTCI

Van Ferit Melen Airport

Van, Turkey
TAF LTCI 171040Z 1712/1721 15008KT 8000 SCT035 BKN080 TEMPO 1712/1716 -RA BKN025 BKN060 PROB40 TEMPO 1716/1720 4000 -SN BKN025 BKN060
Issued Valid From Valid To
Dec-17 @ 10:40 UTC
(2 hours ago)
Dec-17 @ 12:00 UTC
(33 minutes ago)
Dec-17 @ 21:00 UTC
(in 8 hours)
Dec-17 @ 12:00 to Dec-17 @ 21:00
TAF LTCI 171040Z 1712/1721 15008KT 8000 SCT035 BKN080
Wind Visibility Clouds
150° at 8 knots 7,998 meters
  • Scattered at 3,500' AGL
  • Broken at 8,000' AGL
Temporary Dec-17 @ 12:00 to Dec-17 @ 16:00
TEMPO 1712/1716 -RA BKN025 BKN060
Clouds Conditions
  • Broken at 2,500' AGL
  • Broken at 6,000' AGL
  • Light Rain
Temporary  (Probability 40%) Dec-17 @ 16:00 to Dec-17 @ 20:00
PROB40 TEMPO 1716/1720 4000 -SN BKN025 BKN060
Visibility Clouds Conditions
4,007 meters
  • Broken at 2,500' AGL
  • Broken at 6,000' AGL
  • Light Snow
TAF LTCI 171040Z 1712/1721 15008KT 8000 SCT035 BKN080 TEMPO 1712/1716 -RA BKN025 BKN060 PROB40 TEMPO 1716/1720 4000 -SN BKN025 BKN060
Issued Dec-17 @ 10:40 UTC
(2 hours ago)
Valid From Dec-17 @ 12:00 UTC
(33 minutes ago)
Valid To Dec-17 @ 21:00 UTC
(in 8 hours)
Dec-17 @ 12:00 - Dec-17 @ 21:00
Wind Visibility
150° at 8 knots 7,998 meters
Clouds
  • Scattered at 3,500' AGL
  • Broken at 8,000' AGL
Temporary Dec-17 @ 12:00 - Dec-17 @ 16:00
Clouds
  • Broken at 2,500' AGL
  • Broken at 6,000' AGL
Conditions
  • Light Rain
Probability 40% Temporary Dec-17 @ 16:00 - Dec-17 @ 20:00
Clouds
  • Broken at 2,500' AGL
  • Broken at 6,000' AGL
Conditions
  • Light Snow